createdAt,value
2018-06-18T00:00:49.003Z,935.98
2018-06-18T00:02:20.912Z,936.00
2018-06-18T00:03:52.621Z,935.99
2018-06-18T00:05:24.432Z,936.01
2018-06-18T00:06:56.241Z,935.97
2018-06-18T00:08:28.053Z,935.95
2018-06-18T00:09:59.861Z,935.93
2018-06-18T00:11:31.668Z,935.92
2018-06-18T00:13:03.478Z,935.92
2018-06-18T00:14:35.388Z,935.86
2018-06-18T00:16:07.098Z,935.83
2018-06-18T00:17:38.907Z,935.87
2018-06-18T00:19:10.718Z,935.89
2018-06-18T00:20:42.827Z,935.94
2018-06-18T00:22:14.337Z,935.98
2018-06-18T00:23:46.145Z,935.96
2018-06-18T00:25:17.958Z,935.99
2018-06-18T00:26:49.765Z,936.03
2018-06-18T00:28:21.575Z,936.07
2018-06-18T00:29:53.386Z,936.05
2018-06-18T00:31:25.195Z,936.09
2018-06-18T00:32:57.004Z,936.07
2018-06-18T00:34:28.813Z,936.10
2018-06-18T00:36:00.623Z,936.07
2018-06-18T00:37:32.434Z,936.14
2018-06-18T00:39:04.343Z,936.13
2018-06-18T00:40:36.052Z,936.15
2018-06-18T00:42:07.861Z,936.13
2018-06-18T00:43:39.671Z,936.08
2018-06-18T00:45:11.630Z,936.07
2018-06-18T00:46:43.291Z,936.07
2018-06-18T00:48:15.100Z,936.11
2018-06-18T00:49:46.910Z,936.13
2018-06-18T00:51:18.719Z,936.15
2018-06-18T00:52:50.530Z,936.15
2018-06-18T00:54:22.341Z,936.12
2018-06-18T00:55:54.153Z,936.19
2018-06-18T00:57:26.059Z,936.16
2018-06-18T00:58:57.769Z,936.17
2018-06-18T01:00:29.580Z,936.17
2018-06-18T01:02:01.390Z,936.17
2018-06-18T01:03:33.199Z,936.19
2018-06-18T01:05:05.009Z,936.18
2018-06-18T01:06:36.819Z,936.18
2018-06-18T01:08:08.627Z,936.25
2018-06-18T01:09:40.442Z,936.24
2018-06-18T01:11:12.247Z,936.21
2018-06-18T01:12:44.058Z,936.23
2018-06-18T01:14:15.868Z,936.26
2018-06-18T01:15:47.778Z,936.27
2018-06-18T01:17:19.490Z,936.22
2018-06-18T01:18:51.310Z,936.26
2018-06-18T01:20:23.105Z,936.26
2018-06-18T01:21:54.920Z,936.30
2018-06-18T01:23:26.728Z,936.28
2018-06-18T01:24:58.536Z,936.28
2018-06-18T01:26:30.345Z,936.31
2018-06-18T01:28:02.156Z,936.30
2018-06-18T01:29:33.966Z,936.30
2018-06-18T01:31:05.775Z,936.33
2018-06-18T01:32:37.594Z,936.36
2018-06-18T01:34:09.505Z,936.33
2018-06-18T01:35:41.203Z,936.34
2018-06-18T01:37:13.014Z,936.36
2018-06-18T01:38:44.823Z,936.32
2018-06-18T01:40:16.634Z,936.32
2018-06-18T01:41:48.444Z,936.30
2018-06-18T01:43:20.255Z,936.29
2018-06-18T01:44:52.064Z,936.35
2018-06-18T01:46:23.973Z,936.31
2018-06-18T01:47:55.683Z,936.25
2018-06-18T01:49:27.494Z,936.30
2018-06-18T01:50:59.352Z,936.28
2018-06-18T01:52:31.216Z,936.28
2018-06-18T01:54:02.923Z,936.24
2018-06-18T01:55:34.734Z,936.28
2018-06-18T01:57:06.543Z,936.23
2018-06-18T01:58:38.353Z,936.20
2018-06-18T02:00:10.164Z,936.22
2018-06-18T02:01:41.975Z,936.21
2018-06-18T02:03:13.786Z,936.20
2018-06-18T02:04:45.593Z,936.17
2018-06-18T02:06:17.404Z,936.19
2018-06-18T02:07:49.217Z,936.19
2018-06-18T02:09:21.025Z,936.18
2018-06-18T02:10:52.934Z,936.17
2018-06-18T02:12:24.648Z,936.17
2018-06-18T02:13:56.460Z,936.19
2018-06-18T02:15:28.270Z,936.15
2018-06-18T02:17:00.227Z,936.15
2018-06-18T02:18:31.884Z,936.17
2018-06-18T02:20:03.694Z,936.18
2018-06-18T02:21:35.505Z,936.19
2018-06-18T02:23:07.313Z,936.17
2018-06-18T02:24:39.127Z,936.19
2018-06-18T02:26:10.935Z,936.20
2018-06-18T02:27:42.743Z,936.20
2018-06-18T02:29:14.654Z,936.19
2018-06-18T02:30:46.365Z,936.16
2018-06-18T02:32:18.173Z,936.11
2018-06-18T02:33:49.985Z,936.10
2018-06-18T02:35:21.795Z,936.06
2018-06-18T02:36:53.605Z,936.00
2018-06-18T02:38:25.416Z,936.03
2018-06-18T02:39:57.224Z,936.00
2018-06-18T02:41:29.035Z,936.08
2018-06-18T02:43:00.845Z,936.03
2018-06-18T02:44:32.655Z,936.06
2018-06-18T02:46:04.466Z,936.10
2018-06-18T02:47:36.524Z,936.11
2018-06-18T02:49:08.085Z,936.07
2018-06-18T02:50:39.893Z,936.06
2018-06-18T02:52:11.703Z,936.05
2018-06-18T02:53:43.513Z,936.05
2018-06-18T02:55:15.325Z,936.04
2018-06-18T02:56:47.132Z,936.05
2018-06-18T02:58:18.943Z,936.04
2018-06-18T02:59:50.755Z,936.04
2018-06-18T03:01:22.565Z,936.03
2018-06-18T03:02:54.373Z,936.02
2018-06-18T03:04:26.183Z,936.00
2018-06-18T03:05:58.093Z,935.92
2018-06-18T03:07:29.802Z,935.88
2018-06-18T03:09:01.612Z,935.80
2018-06-18T03:10:33.422Z,935.85
2018-06-18T03:12:05.233Z,935.78
2018-06-18T03:13:37.041Z,935.87
2018-06-18T03:15:08.853Z,935.85
2018-06-18T03:16:40.661Z,935.85
2018-06-18T03:18:12.576Z,935.83
2018-06-18T03:19:44.280Z,935.90
2018-06-18T03:21:16.090Z,935.90
2018-06-18T03:22:47.899Z,935.92
2018-06-18T03:24:19.809Z,935.95
2018-06-18T03:25:51.524Z,935.94
2018-06-18T03:27:23.327Z,935.93
2018-06-18T03:28:55.137Z,935.93
2018-06-18T03:30:26.951Z,935.94
2018-06-18T03:31:58.766Z,935.91
2018-06-18T03:33:30.565Z,935.94
2018-06-18T03:35:02.374Z,935.98
2018-06-18T03:36:34.335Z,935.92
2018-06-18T03:38:05.993Z,935.95
2018-06-18T03:39:37.803Z,935.96
2018-06-18T03:41:09.612Z,935.97
2018-06-18T03:42:41.521Z,935.95
2018-06-18T03:44:13.236Z,935.92
2018-06-18T03:45:45.041Z,935.88
2018-06-18T03:47:16.850Z,935.89
2018-06-18T03:48:48.759Z,935.86
2018-06-18T03:50:20.470Z,935.86
2018-06-18T03:51:52.279Z,935.89
2018-06-18T03:53:24.088Z,935.91
2018-06-18T03:54:55.900Z,935.90
2018-06-18T03:56:27.725Z,935.90
2018-06-18T03:57:59.519Z,935.89
2018-06-18T03:59:31.333Z,935.89
2018-06-18T04:01:03.238Z,935.86
2018-06-18T04:02:34.947Z,935.87
2018-06-18T04:04:06.757Z,935.84
2018-06-18T04:05:38.572Z,935.82
2018-06-18T04:07:10.397Z,935.83
2018-06-18T04:08:42.189Z,935.80
2018-06-18T04:10:13.998Z,935.75
2018-06-18T04:11:45.808Z,935.74
2018-06-18T04:13:17.619Z,935.71
2018-06-18T04:14:49.428Z,935.72
2018-06-18T04:16:21.239Z,935.77
2018-06-18T04:17:53.048Z,935.72
2018-06-18T04:19:25.171Z,935.77
2018-06-18T04:20:56.668Z,935.70
2018-06-18T04:22:28.478Z,935.73
2018-06-18T04:24:00.289Z,935.69
2018-06-18T04:25:32.098Z,935.68
2018-06-18T04:27:03.908Z,935.67
2018-06-18T04:28:35.718Z,935.67
2018-06-18T04:30:07.528Z,935.69
2018-06-18T04:31:39.337Z,935.65
2018-06-18T04:33:11.146Z,935.68
2018-06-18T04:34:42.957Z,935.63
2018-06-18T04:36:14.769Z,935.67
2018-06-18T04:37:46.968Z,935.62
2018-06-18T04:39:18.387Z,935.62
2018-06-18T04:40:50.195Z,935.54
2018-06-18T04:42:22.005Z,935.55
2018-06-18T04:43:53.814Z,935.53
2018-06-18T04:45:25.625Z,935.56
2018-06-18T04:46:57.433Z,935.52
2018-06-18T04:48:29.242Z,935.55
2018-06-18T04:50:01.153Z,935.53
2018-06-18T04:51:32.862Z,935.52
2018-06-18T04:53:04.671Z,935.53
2018-06-18T04:54:36.480Z,935.53
2018-06-18T04:56:08.391Z,935.56
2018-06-18T04:57:40.100Z,935.54
2018-06-18T04:59:11.911Z,935.56
2018-06-18T05:00:43.720Z,935.52
2018-06-18T05:02:15.530Z,935.57
2018-06-18T05:03:47.342Z,935.54
2018-06-18T05:05:19.150Z,935.55
2018-06-18T05:06:50.959Z,935.55
2018-06-18T05:08:22.769Z,935.55
2018-06-18T05:09:54.578Z,935.54
2018-06-18T05:11:26.388Z,935.54
2018-06-18T05:12:58.248Z,935.50
2018-06-18T05:14:30.108Z,935.45
2018-06-18T05:16:01.818Z,935.45
2018-06-18T05:17:33.627Z,935.47
2018-06-18T05:19:05.442Z,935.44
2018-06-18T05:20:37.462Z,935.41
2018-06-18T05:22:09.056Z,935.39
2018-06-18T05:23:40.866Z,935.32
2018-06-18T05:25:12.676Z,935.34
2018-06-18T05:26:44.637Z,935.33
2018-06-18T05:28:16.298Z,935.28
2018-06-18T05:29:48.106Z,935.28
2018-06-18T05:31:19.916Z,935.25
2018-06-18T05:32:51.825Z,935.18
2018-06-18T05:34:23.536Z,935.23
2018-06-18T05:35:55.346Z,935.23
2018-06-18T05:37:27.156Z,935.19
2018-06-18T05:38:59.118Z,935.24
2018-06-18T05:40:30.775Z,935.15
2018-06-18T05:42:02.584Z,935.19
2018-06-18T05:43:34.476Z,935.18
2018-06-18T05:45:06.205Z,935.11
2018-06-18T05:46:38.014Z,935.13
2018-06-18T05:48:09.823Z,935.09
2018-06-18T05:49:41.635Z,935.09
2018-06-18T05:51:13.644Z,935.12
2018-06-18T05:52:45.255Z,935.11
2018-06-18T05:54:17.064Z,935.09
2018-06-18T05:55:48.874Z,935.08
2018-06-18T05:57:20.684Z,935.09
2018-06-18T05:58:52.494Z,935.10
2018-06-18T06:00:24.304Z,935.16
2018-06-18T06:01:56.115Z,935.10
2018-06-18T06:03:27.925Z,935.14
2018-06-18T06:04:59.736Z,935.14
2018-06-18T06:06:31.547Z,935.08
2018-06-18T06:08:03.356Z,935.03
2018-06-18T06:09:35.269Z,935.05
2018-06-18T06:11:06.976Z,935.01
2018-06-18T06:12:38.788Z,935.04
2018-06-18T06:14:10.598Z,935.05
2018-06-18T06:15:42.408Z,935.08
2018-06-18T06:17:14.219Z,935.02
2018-06-18T06:18:46.030Z,935.00
2018-06-18T06:20:17.839Z,934.99
2018-06-18T06:21:49.750Z,934.99
2018-06-18T06:23:21.460Z,935.00
2018-06-18T06:24:53.273Z,935.01
2018-06-18T06:26:25.080Z,935.02
2018-06-18T06:27:57.197Z,935.07
2018-06-18T06:29:28.763Z,935.07
2018-06-18T06:31:00.515Z,935.02
2018-06-18T06:32:32.322Z,935.05
2018-06-18T06:34:04.172Z,935.01
2018-06-18T06:35:35.943Z,935.00
2018-06-18T06:37:07.753Z,935.01
2018-06-18T06:38:39.563Z,935.03
2018-06-18T06:40:11.374Z,935.03
2018-06-18T06:41:43.184Z,935.02
2018-06-18T06:43:14.994Z,935.04
2018-06-18T06:44:46.805Z,935.02
2018-06-18T06:46:18.716Z,935.04
2018-06-18T06:47:50.425Z,934.99
2018-06-18T06:49:22.235Z,934.96
2018-06-18T06:50:54.045Z,934.92
2018-06-18T06:52:25.955Z,934.92
2018-06-18T06:53:57.666Z,934.91
2018-06-18T06:55:29.480Z,934.81
2018-06-18T06:57:01.287Z,934.85
2018-06-18T06:58:33.096Z,934.85
2018-06-18T07:00:04.907Z,934.86
2018-06-18T07:01:36.717Z,934.80
2018-06-18T07:03:08.527Z,934.79
2018-06-18T07:04:40.739Z,934.79
2018-06-18T07:06:12.147Z,934.81
2018-06-18T07:07:44.187Z,934.78
2018-06-18T07:09:15.771Z,934.78
2018-06-18T07:10:47.578Z,934.78
2018-06-18T07:12:19.389Z,934.77
2018-06-18T07:13:51.199Z,934.79
2018-06-18T07:15:23.009Z,934.83
2018-06-18T07:16:54.819Z,934.84
2018-06-18T07:18:26.629Z,934.77
2018-06-18T07:19:58.441Z,934.77
2018-06-18T07:21:30.249Z,934.81
2018-06-18T07:23:02.311Z,934.79
2018-06-18T07:24:33.870Z,934.77
2018-06-18T07:26:05.747Z,934.81
2018-06-18T07:27:37.492Z,934.78
2018-06-18T07:29:09.300Z,934.77
2018-06-18T07:30:41.150Z,934.75
2018-06-18T07:32:12.920Z,934.74
2018-06-18T07:33:44.730Z,934.74
2018-06-18T07:35:16.540Z,934.72
2018-06-18T07:36:48.350Z,934.68
2018-06-18T07:38:20.160Z,934.72
2018-06-18T07:39:51.970Z,934.70
2018-06-18T07:41:23.880Z,934.72
2018-06-18T07:42:55.590Z,934.72
2018-06-18T07:44:27.401Z,934.68
2018-06-18T07:45:59.210Z,934.72
2018-06-18T07:47:31.020Z,934.72
2018-06-18T07:49:02.830Z,934.74
2018-06-18T07:50:34.640Z,934.77
2018-06-18T07:52:06.447Z,934.72
2018-06-18T07:53:38.357Z,934.73
2018-06-18T07:55:10.068Z,934.71
2018-06-18T07:56:41.876Z,934.75
2018-06-18T07:58:13.685Z,934.73
2018-06-18T07:59:45.595Z,934.73
2018-06-18T08:01:17.305Z,934.73
2018-06-18T08:02:49.113Z,934.71
2018-06-18T08:04:20.923Z,934.72
2018-06-18T08:05:52.735Z,934.71
2018-06-18T08:07:24.543Z,934.72
2018-06-18T08:08:56.351Z,934.71
2018-06-18T08:10:28.161Z,934.76
2018-06-18T08:11:59.970Z,934.77
2018-06-18T08:13:31.784Z,934.73
2018-06-18T08:15:03.589Z,934.76
2018-06-18T08:16:35.398Z,934.80
2018-06-18T08:18:07.308Z,934.75
2018-06-18T08:19:39.018Z,934.75
2018-06-18T08:21:10.828Z,934.74
2018-06-18T08:22:42.639Z,934.74
2018-06-18T08:24:14.548Z,934.76
2018-06-18T08:25:46.257Z,934.78
2018-06-18T08:27:18.070Z,934.81
2018-06-18T08:28:49.876Z,934.82
2018-06-18T08:30:21.686Z,934.84
2018-06-18T08:31:53.498Z,934.83
2018-06-18T08:33:25.306Z,934.81
2018-06-18T08:34:57.158Z,934.88
2018-06-18T08:36:29.277Z,934.80
2018-06-18T08:38:00.737Z,934.80
2018-06-18T08:39:32.546Z,934.82
2018-06-18T08:41:04.356Z,934.84
2018-06-18T08:42:36.165Z,934.84
2018-06-18T08:44:07.975Z,934.84
2018-06-18T08:45:39.788Z,934.88
2018-06-18T08:47:11.594Z,934.89
2018-06-18T08:48:43.404Z,934.93
2018-06-18T08:50:15.215Z,934.93
2018-06-18T08:51:47.025Z,934.99
2018-06-18T08:53:18.834Z,935.03
2018-06-18T08:54:50.895Z,935.02
2018-06-18T08:56:22.454Z,935.03
2018-06-18T08:57:54.308Z,935.02
2018-06-18T08:59:26.074Z,935.02
2018-06-18T09:00:57.884Z,935.01
2018-06-18T09:02:29.694Z,935.02
2018-06-18T09:04:01.504Z,935.04
2018-06-18T09:05:33.315Z,935.08
2018-06-18T09:07:05.122Z,935.14
2018-06-18T09:08:36.932Z,935.15
2018-06-18T09:10:08.742Z,935.15
2018-06-18T09:11:40.552Z,935.18
2018-06-18T09:13:12.461Z,935.19
2018-06-18T09:14:44.171Z,935.18
2018-06-18T09:16:15.981Z,935.20
2018-06-18T09:17:47.791Z,935.20
2018-06-18T09:19:19.600Z,935.19
2018-06-18T09:20:51.409Z,935.18
2018-06-18T09:22:23.219Z,935.20
2018-06-18T09:23:55.029Z,935.19
2018-06-18T09:25:26.839Z,935.20
2018-06-18T09:26:58.649Z,935.19
2018-06-18T09:28:30.456Z,935.21
2018-06-18T09:30:02.266Z,935.23
2018-06-18T09:31:34.177Z,935.27
2018-06-18T09:33:05.885Z,935.24
2018-06-18T09:34:37.694Z,935.25
2018-06-18T09:36:09.505Z,935.24
2018-06-18T09:37:41.313Z,935.28
2018-06-18T09:39:13.123Z,935.28
2018-06-18T09:40:44.933Z,935.29
2018-06-18T09:42:16.742Z,935.27
2018-06-18T09:43:48.553Z,935.31
2018-06-18T09:45:20.363Z,935.32
2018-06-18T09:46:52.172Z,935.34
2018-06-18T09:48:23.981Z,935.38
2018-06-18T09:49:55.890Z,935.42
2018-06-18T09:51:27.600Z,935.41
2018-06-18T09:52:59.409Z,935.45
2018-06-18T09:54:31.369Z,935.46
2018-06-18T09:56:03.131Z,935.48
2018-06-18T09:57:34.839Z,935.50
2018-06-18T09:59:06.648Z,935.50
2018-06-18T10:00:38.661Z,935.55
2018-06-18T10:03:42.108Z,935.53
2018-06-18T10:05:13.889Z,935.53
2018-06-18T10:06:45.728Z,935.62
2018-06-18T10:08:17.583Z,935.62
2018-06-18T10:09:49.419Z,935.63
2018-06-18T10:11:21.128Z,935.58
2018-06-18T10:12:52.939Z,935.56
2018-06-18T10:14:24.794Z,935.57
2018-06-18T10:15:57.216Z,935.58
2018-06-18T10:17:28.371Z,935.58
2018-06-18T10:20:31.990Z,935.61
2018-06-18T10:22:03.804Z,935.67
2018-06-18T10:23:35.612Z,935.69
2018-06-18T10:25:07.422Z,935.72
2018-06-18T10:26:39.233Z,935.79
2018-06-18T10:28:11.411Z,935.80
2018-06-18T10:29:42.852Z,935.85
2018-06-18T10:31:14.662Z,935.89
2018-06-18T10:32:46.776Z,935.90
2018-06-18T10:34:18.587Z,935.87
2018-06-18T10:35:50.094Z,935.80
2018-06-18T10:37:21.906Z,935.83
2018-06-18T10:38:53.891Z,935.82
2018-06-18T10:40:25.526Z,935.83
2018-06-18T10:41:57.335Z,935.87
2018-06-18T10:43:29.349Z,935.86
2018-06-18T10:45:00.960Z,935.88
2018-06-18T10:46:32.868Z,935.94
2018-06-18T10:48:04.579Z,935.92
2018-06-18T10:49:37.127Z,935.90
2018-06-18T10:51:08.199Z,935.90
2018-06-18T10:52:40.010Z,935.92
2018-06-18T10:54:11.821Z,935.94
2018-06-18T10:55:43.632Z,935.98
2018-06-18T10:57:15.443Z,936.00
2018-06-18T10:58:47.254Z,936.00
2018-06-18T11:01:50.876Z,936.03
2018-06-18T11:03:22.989Z,936.07
2018-06-18T11:04:54.697Z,936.06
2018-06-18T11:06:26.617Z,936.09
2018-06-18T11:07:58.454Z,936.10
2018-06-18T11:09:29.934Z,936.12
2018-06-18T11:11:01.745Z,936.07
2018-06-18T11:12:33.553Z,936.14
2018-06-18T11:14:05.366Z,936.15
2018-06-18T11:15:37.175Z,936.14
2018-06-18T11:17:09.352Z,936.15
2018-06-18T11:18:40.798Z,936.19
2018-06-18T11:21:44.421Z,936.19
2018-06-18T11:24:48.146Z,936.18
2018-06-18T11:26:19.916Z,936.18
2018-06-18T11:27:51.668Z,936.22
2018-06-18T11:29:23.478Z,936.22
2018-06-18T11:30:55.289Z,936.20
2018-06-18T11:32:27.114Z,936.22
2018-06-18T11:33:58.910Z,936.23
2018-06-18T11:35:30.731Z,936.22
2018-06-18T11:37:02.648Z,936.27
2018-06-18T11:38:34.347Z,936.36
2018-06-18T11:40:06.163Z,936.42
2018-06-18T11:41:38.031Z,936.46
2018-06-18T11:43:09.878Z,936.47
2018-06-18T11:44:41.595Z,936.46
2018-06-18T11:46:13.399Z,936.52
2018-06-18T11:47:45.210Z,936.55
2018-06-18T11:49:17.020Z,936.53
2018-06-18T11:50:49.037Z,936.56
2018-06-18T11:52:20.947Z,936.62
2018-06-18T11:53:52.456Z,936.66
2018-06-18T11:55:24.290Z,936.61
2018-06-18T11:56:56.148Z,936.64
2018-06-18T11:58:27.995Z,936.73
2018-06-18T11:59:59.703Z,936.74
2018-06-18T12:01:32.015Z,936.79
2018-06-18T12:03:03.370Z,936.85
2018-06-18T12:04:35.155Z,936.85
2018-06-18T12:06:06.955Z,936.89
2018-06-18T12:07:38.760Z,936.87
2018-06-18T12:09:11.177Z,936.87
2018-06-18T12:10:42.383Z,936.86
2018-06-18T12:12:14.195Z,936.85
2018-06-18T12:13:46.035Z,936.82
2018-06-18T12:16:49.689Z,936.84
2018-06-18T12:18:21.443Z,936.81
2018-06-18T12:19:53.557Z,936.83
2018-06-18T12:21:25.069Z,936.85
2018-06-18T12:24:28.697Z,936.83
2018-06-18T12:26:00.706Z,936.78
2018-06-18T12:27:32.314Z,936.87
2018-06-18T12:29:04.257Z,936.81
2018-06-18T12:30:35.937Z,936.83
2018-06-18T12:32:07.750Z,936.88
2018-06-18T12:33:39.573Z,936.87
2018-06-18T12:35:11.372Z,936.96
2018-06-18T12:36:43.185Z,936.96
2018-06-18T12:38:16.781Z,936.98
2018-06-18T12:39:46.809Z,936.98
2018-06-18T12:41:18.812Z,936.89
2018-06-18T12:42:50.436Z,936.98
2018-06-18T12:44:22.453Z,937.00
2018-06-18T12:45:54.312Z,936.91
2018-06-18T12:47:25.886Z,936.96
2018-06-18T12:48:57.685Z,936.90
2018-06-18T12:50:29.498Z,936.88
2018-06-18T12:52:01.400Z,936.86
2018-06-18T12:55:05.177Z,936.91
2018-06-18T12:58:09.086Z,936.78
2018-06-18T12:59:40.432Z,936.81
2018-06-18T13:01:12.286Z,936.75
2018-06-18T13:02:45.608Z,936.81
2018-06-18T13:04:15.969Z,936.82
2018-06-18T13:05:47.782Z,936.77
2018-06-18T13:10:23.853Z,936.83
2018-06-18T13:11:55.000Z,936.77
2018-06-18T13:13:27.006Z,936.74
2018-06-18T13:16:30.828Z,936.73
2018-06-18T13:18:02.730Z,936.79
2018-06-18T13:19:34.319Z,936.78
2018-06-18T13:21:05.771Z,936.74
2018-06-18T13:22:37.855Z,936.79
2018-06-18T13:24:09.396Z,936.79
2018-06-18T13:25:41.226Z,936.82
2018-06-18T13:27:13.028Z,936.79
2018-06-18T13:28:45.062Z,936.80
2018-06-18T13:30:16.656Z,936.80
2018-06-18T13:31:48.468Z,936.78
2018-06-18T13:33:20.292Z,936.85
2018-06-18T13:34:52.202Z,936.82
2018-06-18T13:36:24.029Z,936.85
2018-06-18T13:37:55.943Z,936.82
2018-06-18T13:39:27.545Z,936.77
2018-06-18T13:40:59.361Z,936.74
2018-06-18T13:42:31.272Z,936.71
2018-06-18T13:44:03.082Z,936.72
2018-06-18T13:47:07.165Z,936.79
2018-06-18T13:48:38.437Z,936.82
2018-06-18T13:50:10.264Z,936.85
2018-06-18T13:51:42.112Z,936.83
2018-06-18T13:53:14.106Z,936.74
2018-06-18T13:54:45.756Z,936.66
2018-06-18T13:56:17.697Z,936.72
2018-06-18T13:57:49.678Z,936.70
2018-06-18T13:59:21.807Z,936.68
2018-06-18T14:02:24.785Z,936.63
2018-06-18T14:03:57.141Z,936.59
2018-06-18T14:05:28.418Z,936.70
2018-06-18T14:07:00.237Z,936.62
2018-06-18T14:08:32.067Z,936.62
2018-06-18T14:10:03.919Z,936.54
2018-06-18T14:11:35.839Z,936.55
2018-06-18T14:13:07.502Z,936.59
2018-06-18T14:16:11.136Z,936.48
2018-06-18T14:19:14.974Z,936.44
2018-06-18T14:20:46.590Z,936.41
2018-06-18T14:22:18.942Z,936.38
2018-06-18T14:25:22.191Z,936.27
2018-06-18T14:26:53.865Z,936.26
2018-06-18T14:28:26.042Z,936.19
2018-06-18T14:29:57.500Z,936.15
2018-06-18T14:31:30.165Z,936.24
2018-06-18T14:33:01.134Z,936.23
2018-06-18T14:34:33.176Z,936.26
2018-06-18T14:36:04.876Z,936.25
2018-06-18T14:37:36.594Z,936.33
2018-06-18T14:39:08.411Z,936.14
2018-06-18T14:40:40.232Z,936.21
2018-06-18T14:43:45.385Z,936.03
2018-06-18T14:46:47.638Z,935.79
2018-06-18T14:48:19.492Z,935.85
2018-06-18T14:49:51.785Z,935.75
2018-06-18T14:51:23.540Z,935.73
2018-06-18T14:52:54.792Z,935.77
2018-06-18T14:54:27.014Z,935.86
2018-06-18T14:55:58.513Z,935.75
2018-06-18T14:57:30.254Z,935.70
2018-06-18T14:59:02.073Z,935.86
2018-06-18T15:02:05.841Z,935.74
2018-06-18T15:03:37.600Z,935.55
2018-06-18T15:05:09.475Z,935.61
2018-06-18T15:06:41.377Z,935.72
2018-06-18T15:08:14.517Z,935.50
2018-06-18T15:09:45.280Z,935.56
2018-06-18T15:11:16.633Z,935.63
2018-06-18T15:12:48.486Z,935.67
2018-06-18T15:14:20.725Z,935.55
2018-06-18T15:15:52.131Z,935.66
2018-06-18T15:17:23.911Z,935.57
2018-06-18T15:18:55.945Z,935.59
2018-06-18T15:20:27.616Z,935.48
2018-06-18T15:21:59.477Z,935.50
2018-06-18T15:25:03.613Z,935.56
2018-06-18T15:28:06.964Z,935.41
2018-06-18T15:29:38.787Z,935.43
2018-06-18T15:34:14.151Z,935.55
2018-06-18T15:35:45.772Z,935.37
2018-06-18T15:38:49.530Z,935.39
2018-06-18T15:40:21.244Z,935.38
2018-06-18T15:41:53.107Z,935.43
2018-06-18T15:43:24.947Z,935.35
2018-06-18T15:44:56.706Z,935.32
2018-06-18T15:46:29.091Z,935.23
2018-06-18T15:49:32.375Z,935.14
2018-06-18T15:51:03.994Z,935.08
2018-06-18T15:54:08.170Z,935.12
2018-06-18T15:55:39.872Z,935.11
2018-06-18T15:57:12.364Z,935.15
2018-06-18T15:58:43.303Z,935.19
2018-06-18T16:00:15.456Z,935.11
2018-06-18T16:01:46.959Z,935.03
2018-06-18T16:04:50.383Z,935.03
2018-06-18T16:06:22.890Z,935.14
2018-06-18T16:07:54.361Z,935.14
2018-06-18T16:09:25.876Z,935.32
2018-06-18T16:10:57.755Z,935.27
2018-06-18T16:12:29.563Z,935.34
2018-06-18T16:14:01.308Z,935.18
2018-06-18T16:17:04.953Z,935.13
2018-06-18T16:20:08.629Z,934.91
2018-06-18T16:21:40.419Z,934.88
2018-06-18T16:23:12.297Z,934.77
2018-06-18T16:24:44.421Z,934.76
2018-06-18T16:27:48.137Z,934.81
2018-06-18T16:29:19.528Z,934.81
2018-06-18T16:30:51.413Z,934.85
2018-06-18T16:33:55.085Z,934.76
2018-06-18T16:35:26.811Z,934.83
2018-06-18T16:36:58.630Z,934.82
2018-06-18T16:38:30.470Z,934.81
2018-06-18T16:41:34.090Z,934.78
2018-06-18T16:43:05.991Z,934.73
2018-06-18T16:44:37.734Z,934.76
2018-06-18T16:46:09.556Z,934.73
2018-06-18T16:47:41.627Z,934.76
2018-06-18T16:49:13.188Z,934.85
2018-06-18T16:50:45.011Z,934.74
2018-06-18T16:52:16.834Z,934.65
2018-06-18T16:53:49.051Z,934.64
2018-06-18T16:55:20.466Z,934.68
2018-06-18T16:56:52.470Z,934.58
2018-06-18T16:58:24.108Z,934.60
2018-06-18T16:59:56.079Z,934.60
2018-06-18T17:01:27.749Z,934.65
2018-06-18T17:02:59.584Z,934.58
2018-06-18T17:06:03.437Z,934.64
2018-06-18T17:07:35.237Z,934.67
2018-06-18T17:09:06.926Z,934.63
2018-06-18T17:10:38.681Z,934.59
2018-06-18T17:13:42.473Z,934.68
2018-06-18T17:15:14.672Z,934.55
2018-06-18T17:16:45.969Z,934.63
2018-06-18T17:18:18.243Z,934.67
2018-06-18T17:19:49.620Z,934.60
2018-06-18T17:21:21.434Z,934.75
2018-06-18T17:22:53.355Z,934.70
2018-06-18T17:24:25.381Z,934.66
2018-06-18T17:25:57.204Z,934.71
2018-06-18T17:27:29.027Z,934.67
2018-06-18T17:29:00.581Z,934.72
2018-06-18T17:33:36.214Z,934.51
2018-06-18T17:36:39.855Z,934.60
2018-06-18T17:38:11.473Z,934.72
2018-06-18T17:39:43.304Z,934.63
2018-06-18T17:41:15.114Z,934.60
2018-06-18T17:42:46.938Z,934.61
2018-06-18T17:44:19.059Z,934.61
2018-06-18T17:45:50.874Z,934.67
2018-06-18T17:47:22.391Z,934.61
2018-06-18T17:48:54.216Z,934.64
2018-06-18T17:50:26.045Z,934.71
2018-06-18T17:51:58.206Z,934.57
2018-06-18T17:53:29.760Z,934.54
2018-06-18T17:55:01.487Z,934.55
2018-06-18T17:56:33.321Z,934.42
2018-06-18T17:58:05.125Z,934.46
2018-06-18T17:59:37.186Z,934.57
2018-06-18T18:01:09.065Z,934.48
2018-06-18T18:02:40.585Z,934.49
2018-06-18T18:04:12.497Z,934.53
2018-06-18T18:05:44.415Z,934.49
2018-06-18T18:07:16.038Z,934.55
2018-06-18T18:08:47.850Z,934.61
2018-06-18T18:10:19.668Z,934.50
2018-06-18T18:11:51.498Z,934.54
2018-06-18T18:13:23.382Z,934.51
2018-06-18T18:14:55.116Z,934.53
2018-06-18T18:16:26.934Z,934.50
2018-06-18T18:17:59.281Z,934.51
2018-06-18T18:19:30.569Z,934.50
2018-06-18T18:21:02.601Z,934.47
2018-06-18T18:24:06.365Z,934.52
2018-06-18T18:25:38.135Z,934.48
2018-06-18T18:27:10.179Z,934.49
2018-06-18T18:28:41.482Z,934.44
2018-06-18T18:30:13.375Z,934.48
2018-06-18T18:31:45.091Z,934.50
2018-06-18T18:33:16.904Z,934.57
2018-06-18T18:34:48.739Z,934.49
2018-06-18T18:36:20.537Z,934.44
2018-06-18T18:37:52.345Z,934.46
2018-06-18T18:39:24.409Z,934.48
2018-06-18T18:42:28.037Z,934.48
2018-06-18T18:43:59.600Z,934.51
2018-06-18T18:47:03.227Z,934.58
2018-06-18T18:48:35.140Z,934.55
2018-06-18T18:50:06.860Z,934.52
2018-06-18T18:51:38.668Z,934.53
2018-06-18T18:53:10.488Z,934.55
2018-06-18T18:56:15.368Z,934.52
2018-06-18T18:57:46.454Z,934.55
2018-06-18T18:59:17.733Z,934.55
2018-06-18T19:00:49.556Z,934.54
2018-06-18T19:02:21.467Z,934.62
2018-06-18T19:03:53.227Z,934.59
2018-06-18T19:05:25.044Z,934.56
2018-06-18T19:06:56.803Z,934.59
2018-06-18T19:08:28.611Z,934.57
2018-06-18T19:10:00.425Z,934.61
2018-06-18T19:11:32.350Z,934.62
2018-06-18T19:13:04.074Z,934.55
2018-06-18T19:14:36.423Z,934.60
2018-06-18T19:16:08.177Z,934.60
2018-06-18T19:17:39.610Z,934.57
2018-06-18T19:19:11.310Z,934.54
2018-06-18T19:20:43.206Z,934.56
2018-06-18T19:22:14.928Z,934.55
2018-06-18T19:23:46.733Z,934.56
2018-06-18T19:25:18.543Z,934.51
2018-06-18T19:26:50.354Z,934.46
2018-06-18T19:28:22.175Z,934.51
2018-06-18T19:29:53.982Z,934.49
2018-06-18T19:31:25.820Z,934.51
2018-06-18T19:32:57.599Z,934.53
2018-06-18T19:34:29.411Z,934.47
2018-06-18T19:36:01.226Z,934.43
2018-06-18T19:37:33.143Z,934.47
2018-06-18T19:39:05.746Z,934.49
2018-06-18T19:40:36.695Z,934.51
2018-06-18T19:42:08.467Z,934.53
2018-06-18T19:43:40.365Z,934.63
2018-06-18T19:45:12.199Z,934.64
2018-06-18T19:46:43.945Z,934.63
2018-06-18T19:49:47.541Z,934.66
2018-06-18T19:51:19.334Z,934.50
2018-06-18T19:52:51.147Z,934.58
2018-06-18T19:54:22.955Z,934.67
2018-06-18T19:55:55.107Z,934.70
2018-06-18T19:57:26.682Z,934.67
2018-06-18T19:58:58.390Z,934.70
2018-06-18T20:00:30.224Z,934.77
2018-06-18T20:02:02.011Z,934.79
2018-06-18T20:03:33.837Z,934.82
2018-06-18T20:05:05.635Z,934.88
2018-06-18T20:06:37.444Z,934.82
2018-06-18T20:08:09.306Z,934.84
2018-06-18T20:09:41.162Z,934.79
2018-06-18T20:11:12.879Z,934.77